Observations for AUCKLAND INTL A, New Zealand (NZAA)

NZAA 180530Z AUTO 30013KT 9999 SCT036/// SCT050/// 16/11 Q1005 NOSIG
NZAA 180500Z AUTO 30011KT 9999 FEW027/// BKN036/// BKN045/// 16/12 Q1005 NOSIG  
NZAA 180430Z AUTO 31016KT 280V340 9999 SCT032/// SCT041/// BKN050/// 17/12 Q1004 NOSIG  
NZAA 180400Z AUTO 30016KT 260V330 9999 SCT035/// 17/12 Q1004 NOSIG  
NZAA 180330Z AUTO 30013KT 9999 NCD 18/12 Q1004 NOSIG
NZAA 180300Z AUTO 31017KT 280V340 9999 FEW080/// 18/12 Q1004 NOSIG  
NZAA 180230Z AUTO 30016KT 260V330 9999 SCT031/// SCT039/// 18/12 Q1004 NOSIG
NZAA 180200Z AUTO 36013KT 9999 SCT028/// BKN036/// OVC055/// 17/14 Q1004 BECMG 30015KT  
NZAA 180130Z AUTO 01013KT 9999 SCT029/// BKN034/// BKN042/// 17/14 Q1004 BECMG 30015KT  
NZAA 180100Z AUTO 02012KT 9999 NCD 18/14 Q1004 BECMG 30015KT
NZAA 180030Z AUTO 03009KT 9999 FEW030/// BKN090/// 18/15 Q1005 TEMPO 5000 SHRA FEW020TCU
NZAA 180000Z AUTO 02009KT 9999 -RA FEW030/// BKN080/// OVC095/// 16/14 Q1006 TEMPO 5000 SHRA FEW020TCU  
NZAA 172330Z AUTO 01009KT 9999 -RA SCT075/// BKN100/// 16/14 Q1007 TEMPO 5000 SHRA FEW020TCU
NZAA 172300Z AUTO 02009KT 9999 BKN095/// 16/14 Q1007 TEMPO 5000 SHRA FEW020TCU  
NZAA 172230Z AUTO 36011KT 9999 -RA FEW050/// BKN090/// 16/14 Q1008 NOSIG
NZAA 172200Z AUTO 01011KT 9999 FEW011/// BKN090/// 16/15 Q1008 TEMPO FM2200 5000 SHRA FEW020TCU 
NZAA 172130Z AUTO 02010KT 9999 FEW009/// 15/15 Q1007 TEMPO FM2200 5000 SHRA FEW020TCU   
NZAA 172100Z AUTO 03010KT 9999 FEW010/// 15/14 Q1008 TEMPO FM2200 5000 SHRA FEW020TCU   
NZAA 172030Z AUTO 02008KT 9999 FEW034/// OVC100/// 14/13 Q1008 NOSIG
NZAA 172000Z AUTO 01009KT 9999 BKN036/// BKN045/// BKN100/// 14/13 Q1008 TEMPO 6000 SHRA FEW020TCU  
NZAA 171930Z AUTO 36006KT 9999 SCT032/// BKN047/// 13/12 Q1009 NOSIG
NZAA 171900Z AUTO 36004KT 9999 BKN047/// 13/12 Q1008 BECMG 02015KT  
NZAA 171830Z AUTO 04004KT 9999 FEW028/// 12/12 Q1008 NOSIG  
NZAA 171800Z AUTO 06005KT 9999 NCD 12/12 Q1009 NOSIG
NZAA 171730Z AUTO 07004KT 9999 FEW095/// 12/12 Q1009 NOSIG  
NZAA 171700Z AUTO 09003KT 9999 NCD 12/12 Q1009 NOSIG
NZAA 171630Z AUTO 05002KT 9999 NCD 12/11 Q1010 NOSIG
NZAA 171600Z AUTO 06006KT 9999 NCD 12/12 Q1010 NOSIG
NZAA 171530Z AUTO 06006KT 9999 FEW090/// 12/12 Q1010 NOSIG  
NZAA 171500Z AUTO 04005KT 9999 FEW065/// OVC085/// 13/12 Q1011 NOSIG
NZAA 171430Z AUTO 03005KT 9999 BKN085/// 13/12 Q1011 NOSIG  
NZAA 171400Z AUTO 01005KT 9999 OVC080/// 12/12 Q1011 NOSIG  
NZAA 171330Z AUTO 02004KT 9999 OVC080/// 12/11 Q1011 NOSIG  
NZAA 171300Z AUTO 09001KT 9999 OVC080/// 11/11 Q1011 NOSIG  
NZAA 171230Z AUTO 06003KT 9999 OVC085/// 11/10 Q1011 NOSIG  
NZAA 171200Z AUTO 10003KT 9999 SCT090/// 11/10 Q1011 NOSIG  
NZAA 171130Z AUTO 02004G14KT 330V070 9999 NCD 11/10 Q1011 NOSIG 
NZAA 171100Z AUTO 02004KT 9999 NCD 11/10 Q1012 NOSIG
NZAA 171030Z AUTO 01005KT 9999 NCD 11/10 Q1012 NOSIG
NZAA 171000Z AUTO 04006KT 9999 NCD 12/10 Q1012 NOSIG
NZAA 170930Z AUTO 02005KT 340V050 9999 NCD 12/10 Q1012 NOSIG
NZAA 170900Z AUTO 03003KT 9999 FEW100/// 12/10 Q1013 TEMPO 6000 SHRA FEW020TCU  
NZAA 170830Z AUTO 01002KT 9999 FEW100/// 13/10 Q1013 TEMPO FM0930 6000 SHRA FEW020TCU   
NZAA 170800Z AUTO 05002KT 9999 NCD 12/10 Q1012 NOSIG
NZAA 170730Z AUTO 31004KT 9999 NCD 13/10 Q1012 NOSIG
NZAA 170700Z AUTO 31003KT 9999 NCD 13/10 Q1012 NOSIG
NZAA 170630Z AUTO 01002KT 9999 NCD 12/10 Q1012 NOSIG
NZAA 170600Z AUTO 33004KT 290V010 9999 NCD 13/10 Q1012 NOSIG
NZAA 170530Z AUTO 30006KT 260V340 9999 NCD 14/10 Q1012 NOSIG
NZAA 170500Z AUTO 30004KT 9999 NCD 14/10 Q1012 NOSIG